Time;durP1;ratioP1;P1;durP2;ratioP2;P2;SDS_P1;SDS_P2;PMS_P1;PMS_P2;Temp;Humidity;BMP_temperature;BMP_pressure;BME280_temperature;BME280_humidity;BME280_pressure;Samples;Min_cycle;Max_cycle;Signal;HPM_P1;HPM_P2
2021/07/30 00:01:51;;;;;;;4.40;1.70;;;;;;;15.47;78.63;99882.28;5011024;28;20242;-71
2021/07/30 00:04:16;;;;;;;1.10;1.00;;;;;;;15.38;79.45;99892.72;5010736;28;20586;-71
2021/07/30 00:06:42;;;;;;;1.27;1.17;;;;;;;15.30;80.32;99887.38;5011112;28;20200;-71
2021/07/30 00:09:07;;;;;;;1.17;0.90;;;;;;;15.25;80.97;99884.91;5011202;28;20173;-71
2021/07/30 00:11:32;;;;;;;1.67;1.23;;;;;;;15.19;81.30;99887.13;5010550;28;20177;-71
2021/07/30 00:13:58;;;;;;;2.83;1.43;;;;;;;15.19;81.60;99881.63;5008427;28;20191;-71
2021/07/30 00:16:23;;;;;;;1.33;1.20;;;;;;;15.11;82.44;99880.66;5005340;28;20262;-71
2021/07/30 00:18:48;;;;;;;5.10;1.87;;;;;;;15.00;83.17;99887.03;5010730;28;20199;-71
2021/07/30 00:21:14;;;;;;;6.30;1.10;;;;;;;14.86;83.26;99901.22;5010843;28;20172;-71
2021/07/30 00:23:39;;;;;;;3.87;1.23;;;;;;;14.81;85.29;99890.50;5010964;28;20199;-71
2021/07/30 00:26:04;;;;;;;1.00;1.00;;;;;;;14.77;83.95;99881.34;5010960;28;20227;-71
2021/07/30 00:28:30;;;;;;;1.90;1.53;;;;;;;14.71;84.63;99880.78;5010940;28;20180;-71
2021/07/30 00:30:55;;;;;;;2.10;1.27;;;;;;;14.66;84.85;99875.56;5011019;28;20533;-71
2021/07/30 00:33:20;;;;;;;1.80;1.50;;;;;;;14.58;85.86;99880.06;5010837;28;20565;-71
2021/07/30 00:35:46;;;;;;;1.50;1.27;;;;;;;14.58;84.43;99871.81;5010784;28;20264;-71
2021/07/30 00:38:11;;;;;;;1.40;1.30;;;;;;;14.63;84.17;99876.28;5010932;28;20173;-71
2021/07/30 00:40:36;;;;;;;1.63;1.20;;;;;;;14.64;84.42;99872.38;5010818;28;20208;-71
2021/07/30 00:43:05;;;;;;;1.23;1.13;;;;;;;14.59;85.38;99875.38;5011616;28;20239;-71
2021/07/30 00:45:30;;;;;;;2.53;1.87;;;;;;;14.56;85.69;99874.13;5006457;28;20212;-71
2021/07/30 00:47:56;;;;;;;1.33;1.23;;;;;;;14.52;86.32;99870.47;5010252;28;20306;-71
2021/07/30 00:50:21;;;;;;;1.90;1.70;;;;;;;14.45;86.90;99874.97;5010622;28;20612;-71
2021/07/30 00:52:48;;;;;;;7.27;1.40;;;;;;;14.38;86.48;99875.56;5010358;28;20185;-71
2021/07/30 00:55:14;;;;;;;2.23;1.60;;;;;;;14.45;85.90;99874.97;5008645;28;20196;-71
2021/07/30 00:57:40;;;;;;;1.70;1.60;;;;;;;14.39;86.43;99873.63;5010758;28;20188;-71
2021/07/30 01:00:06;;;;;;;2.00;1.40;;;;;;;14.48;86.40;99880.59;5010561;28;20195;-71
2021/07/30 01:02:32;;;;;;;2.07;1.60;;;;;;;14.53;86.25;99877.59;5010415;28;20292;-71
2021/07/30 01:04:59;;;;;;;1.67;1.37;;;;;;;14.51;86.99;99881.84;5010551;28;20303;-71
2021/07/30 01:07:24;;;;;;;1.93;1.83;;;;;;;14.49;87.32;99870.41;5010581;28;20529;-70
2021/07/30 01:09:49;;;;;;;2.87;1.53;;;;;;;14.49;87.50;99881.41;5010750;28;20209;-71
2021/07/30 01:12:16;;;;;;;3.47;2.23;;;;;;;14.30;87.48;99866.31;5010439;28;20185;-71
2021/07/30 01:14:41;;;;;;;2.77;1.47;;;;;;;14.32;88.40;99876.97;5010289;28;20616;-71
2021/07/30 01:17:06;;;;;;;2.10;1.60;;;;;;;14.44;88.18;99881.63;5013627;28;20212;-71
2021/07/30 01:19:32;;;;;;;1.90;1.77;;;;;;;14.37;87.87;99878.66;5013897;28;20180;-71
2021/07/30 01:22:06;;;;;;;1.83;1.17;;;;;;;14.35;87.55;99865.28;5013543;28;20283;-71
2021/07/30 01:24:32;;;;;;;2.27;1.50;;;;;;;14.41;88.13;99879.56;5013836;28;20203;-71
2021/07/30 01:26:57;;;;;;;4.50;1.63;;;;;;;14.22;88.11;99866.47;5013808;28;20379;-71
2021/07/30 01:29:24;;;;;;;2.30;1.60;;;;;;;13.98;88.21;99868.16;5013697;28;20169;-71
2021/07/30 01:31:50;;;;;;;3.30;2.17;;;;;;;14.05;88.21;99873.06;5013611;28;20173;-71
2021/07/30 01:34:15;;;;;;;2.40;1.87;;;;;;;14.02;88.82;99871.00;5013680;28;20628;-71
2021/07/30 01:36:40;;;;;;;3.50;1.67;;;;;;;13.84;88.70;99899.88;5013720;28;20184;-71
2021/07/30 01:39:05;;;;;;;1.83;1.67;;;;;;;13.94;88.13;99889.22;5013644;28;20183;-71
2021/07/30 01:41:31;;;;;;;3.23;1.53;;;;;;;14.22;85.63;99889.25;5013113;28;20177;-71
2021/07/30 01:43:56;;;;;;;7.27;1.83;;;;;;;14.35;84.82;99881.78;5013372;28;20279;-71
2021/07/30 01:46:21;;;;;;;1.83;1.70;;;;;;;14.49;83.45;99881.41;5013344;28;20548;-71
2021/07/30 01:48:47;;;;;;;2.00;1.13;;;;;;;14.52;83.24;99883.44;5013337;28;20188;-71
2021/07/30 01:51:12;;;;;;;1.00;1.00;;;;;;;14.58;83.17;99873.75;5013255;28;20177;-71
2021/07/30 01:53:37;;;;;;;1.63;1.40;;;;;;;14.57;83.05;99875.72;5013165;28;20702;-71
2021/07/30 01:56:06;;;;;;;1.33;1.23;;;;;;;14.58;82.54;99874.56;5013431;28;20188;-71
2021/07/30 01:58:33;;;;;;;1.30;1.23;;;;;;;14.64;82.60;99872.38;5013168;28;20351;-71
2021/07/30 02:00:59;;;;;;;1.60;1.50;;;;;;;14.64;82.36;99871.56;5013141;28;20256;-71
2021/07/30 02:03:24;;;;;;;2.10;1.90;;;;;;;14.56;83.45;99871.38;5012864;28;20268;-71
2021/07/30 02:05:50;;;;;;;4.13;1.53;;;;;;;14.53;82.78;99865.78;5013068;28;20176;-71
2021/07/30 02:08:15;;;;;;;1.70;1.60;;;;;;;14.57;82.65;99878.47;5013022;28;20211;-71
2021/07/30 02:10:40;;;;;;;1.67;1.33;;;;;;;14.53;83.00;99868.53;5012930;28;20652;-71
2021/07/30 02:15:50;;;;;;;2.73;1.60;;;;;;;14.57;82.47;99858.44;4993413;28;20204;-71
2021/07/30 02:18:15;;;;;;;1.53;1.20;;;;;;;14.55;82.43;99855.22;4993149;28;20177;-71
2021/07/30 02:20:40;;;;;;;1.90;1.60;;;;;;;14.54;82.72;99842.66;4993360;28;20547;-71
2021/07/30 02:23:06;;;;;;;1.90;1.50;;;;;;;14.53;82.76;99852.03;4993160;28;20177;-70
2021/07/30 02:25:31;;;;;;;1.83;1.40;;;;;;;14.51;83.18;99855.16;4993393;28;20236;-71
2021/07/30 02:27:56;;;;;;;1.47;1.37;;;;;;;14.52;83.55;99847.69;4993064;28;20272;-71
2021/07/30 02:30:22;;;;;;;1.53;1.43;;;;;;;14.49;82.93;99851.16;4993166;28;20208;-71
2021/07/30 02:32:47;;;;;;;1.50;1.30;;;;;;;14.48;83.35;99861.34;5007961;28;20184;-71
2021/07/30 02:35:12;;;;;;;3.57;2.70;;;;;;;14.45;83.97;99850.25;4993026;28;20188;-71
2021/07/30 02:37:38;;;;;;;1.80;1.60;;;;;;;14.43;83.10;99850.56;4992852;28;20177;-71
2021/07/30 02:40:04;;;;;;;4.50;2.53;;;;;;;14.45;83.30;99851.03;4992656;28;20193;-71
2021/07/30 02:42:29;;;;;;;2.17;1.70;;;;;;;14.45;83.73;99855.75;4992832;28;20224;-71
2021/07/30 02:44:54;;;;;;;1.23;1.13;;;;;;;14.40;83.87;99853.22;4993004;28;20664;-71
2021/07/30 02:47:20;;;;;;;2.17;1.73;;;;;;;14.42;83.21;99859.16;4992679;28;20256;-71
2021/07/30 02:49:45;;;;;;;1.77;1.60;;;;;;;14.49;82.99;99867.66;4992821;28;20548;-72
2021/07/30 02:52:10;;;;;;;1.50;1.40;;;;;;;14.50;82.95;99856.28;4992616;28;20177;-72
2021/07/30 02:54:36;;;;;;;1.60;1.50;;;;;;;14.50;83.11;99864.53;4992546;28;20655;-72
2021/07/30 02:57:01;;;;;;;3.90;2.23;;;;;;;14.52;83.02;99859.50;4992855;28;20208;-72
2021/07/30 02:59:26;;;;;;;3.23;1.90;;;;;;;14.57;81.98;99861.97;4992845;28;20263;-71
2021/07/30 03:01:52;;;;;;;2.97;1.90;;;;;;;14.59;82.28;99862.41;4992269;28;20177;-72
2021/07/30 03:04:17;;;;;;;3.47;1.33;;;;;;;14.63;82.24;99856.22;4992225;28;20326;-72
2021/07/30 03:06:42;;;;;;;1.27;1.17;;;;;;;14.62;82.10;99857.38;4992306;28;20260;-72
2021/07/30 03:09:08;;;;;;;1.53;1.43;;;;;;;14.56;82.49;99856.84;4992351;28;20636;-72
2021/07/30 03:11:33;;;;;;;2.87;1.10;;;;;;;14.58;82.19;99860.03;4992165;28;20181;-71
2021/07/30 03:13:59;;;;;;;4.13;1.77;;;;;;;14.55;82.92;99850.53;4992253;28;20181;-71
2021/07/30 03:16:24;;;;;;;4.07;2.00;;;;;;;14.52;82.62;99847.69;4992502;28;20193;-72
2021/07/30 03:18:49;;;;;;;2.40;1.80;;;;;;;14.41;83.17;99844.63;4992102;28;20679;-71
2021/07/30 03:21:14;;;;;;;2.20;1.87;;;;;;;14.48;82.64;99850.34;4992123;28;20272;-71
2021/07/30 03:23:40;;;;;;;3.03;1.73;;;;;;;14.50;82.71;99855.50;4991983;28;20688;-71
2021/07/30 03:26:05;;;;;;;4.47;1.60;;;;;;;14.48;83.59;99844.84;4992061;28;20177;-72
2021/07/30 03:28:31;;;;;;;1.77;1.60;;;;;;;14.40;83.30;99845.78;4992179;28;20189;-72
2021/07/30 03:31:00;;;;;;;1.40;1.30;;;;;;;14.43;83.91;99850.56;4991921;28;20223;-71
2021/07/30 03:33:26;;;;;;;5.73;1.67;;;;;;;14.40;83.42;99855.97;4992181;28;20181;-71
2021/07/30 03:35:51;;;;;;;1.80;1.60;;;;;;;14.39;83.37;99846.13;4991924;28;20181;-71
2021/07/30 03:38:16;;;;;;;1.77;1.53;;;;;;;14.40;83.90;99844.97;4991412;28;20268;-71
2021/07/30 03:40:43;;;;;;;2.70;2.17;;;;;;;14.25;85.24;99857.53;4991511;28;20227;-72
2021/07/30 03:43:09;;;;;;;1.83;1.73;;;;;;;14.30;85.12;99851.78;4991745;28;20177;-72
2021/07/30 03:45:34;;;;;;;3.10;1.73;;;;;;;14.16;85.53;99852.19;4992388;28;20259;-72
2021/07/30 03:47:59;;;;;;;4.67;2.10;;;;;;;14.20;85.83;99850.34;4991861;28;20704;-72
2021/07/30 03:50:25;;;;;;;2.93;1.60;;;;;;;14.17;86.90;99853.78;5008691;28;20543;-71
2021/07/30 03:52:50;;;;;;;2.13;1.90;;;;;;;13.99;87.59;99856.03;5011173;28;20242;-71
2021/07/30 03:55:15;;;;;;;1.97;1.87;;;;;;;14.24;87.22;99853.97;5011279;28;20184;-72
2021/07/30 03:57:41;;;;;;;1.80;1.70;;;;;;;14.02;87.11;99854.50;5011236;28;20670;-72
2021/07/30 04:00:07;;;;;;;2.30;1.70;;;;;;;13.97;88.25;99844.59;5011127;28;20223;-72
2021/07/30 04:02:32;;;;;;;7.60;2.70;;;;;;;13.87;88.80;99841.53;5011047;28;20303;-72
2021/07/30 04:04:57;;;;;;;6.17;2.17;;;;;;;14.13;88.49;99844.63;5011060;28;20350;-72
2021/07/30 04:07:23;;;;;;;1.87;1.60;;;;;;;14.21;88.29;99849.19;5011235;28;20180;-72
2021/07/30 04:09:48;;;;;;;2.53;1.83;;;;;;;14.10;87.97;99850.84;5011410;28;20180;-72
2021/07/30 04:12:13;;;;;;;1.87;1.67;;;;;;;14.15;87.54;99863.53;5010981;28;20669;-72
2021/07/30 04:14:39;;;;;;;3.97;1.57;;;;;;;14.17;87.96;99844.72;5011001;28;20176;-71
2021/07/30 04:17:07;;;;;;;2.00;1.90;;;;;;;14.17;87.60;99850.22;5007911;28;20211;-71
2021/07/30 04:19:32;;;;;;;3.63;1.57;;;;;;;14.26;86.91;99851.69;5004468;28;20259;-71
2021/07/30 04:21:58;;;;;;;1.70;1.60;;;;;;;14.28;87.06;99854.88;5010677;28;20621;-71
2021/07/30 04:24:23;;;;;;;1.50;1.40;;;;;;;14.26;86.38;99840.69;5010908;28;20222;-71
2021/07/30 04:26:48;;;;;;;1.30;1.20;;;;;;;14.30;86.37;99849.81;5011001;28;20172;-71
2021/07/30 04:29:14;;;;;;;1.80;1.70;;;;;;;14.34;86.72;99849.94;5010873;28;20180;-72
2021/07/30 04:31:40;;;;;;;2.50;2.03;;;;;;;14.37;85.70;99849.22;5025917;28;20168;-72
2021/07/30 04:34:08;;;;;;;1.87;1.77;;;;;;;14.37;86.68;99848.44;5010913;28;20204;-71
2021/07/30 04:36:34;;;;;;;1.90;1.73;;;;;;;14.38;86.28;99850.03;5010924;28;20177;-71
2021/07/30 04:38:59;;;;;;;2.37;1.63;;;;;;;14.39;87.00;99868.13;5010246;28;20659;-72
2021/07/30 04:41:24;;;;;;;4.37;1.43;;;;;;;14.41;86.98;99857.56;5004440;28;20656;-71
2021/07/30 04:43:50;;;;;;;1.70;1.20;;;;;;;14.42;86.60;99856.41;5006631;28;20208;-72
2021/07/30 04:46:16;;;;;;;3.63;2.00;;;;;;;14.42;86.71;99848.16;5010666;28;20223;-71
2021/07/30 04:48:42;;;;;;;2.20;1.97;;;;;;;14.43;87.07;99852.50;5009841;28;20663;-72
2021/07/30 04:51:08;;;;;;;1.40;1.30;;;;;;;14.45;86.81;99853.00;5008398;28;20176;-71
2021/07/30 04:53:33;;;;;;;4.60;1.73;;;;;;;14.49;86.97;99849.22;5004886;28;20736;-72
2021/07/30 04:55:58;;;;;;;1.77;1.63;;;;;;;14.52;86.79;99854.00;5014014;28;20525;-72
2021/07/30 04:58:24;;;;;;;2.07;1.73;;;;;;;14.52;86.68;99854.00;5009157;28;20184;-72
2021/07/30 05:00:49;;;;;;;3.70;1.73;;;;;;;14.54;86.62;99850.88;5010149;28;20184;-71
2021/07/30 05:03:14;;;;;;;1.73;1.40;;;;;;;14.58;86.29;99854.53;5014256;28;20172;-71
2021/07/30 05:05:40;;;;;;;2.10;1.90;;;;;;;14.64;86.29;99847.63;5013829;28;20205;-72
2021/07/30 05:08:06;;;;;;;2.70;2.40;;;;;;;14.70;86.15;99856.41;5005731;28;20177;-71
2021/07/30 05:10:32;;;;;;;2.57;1.63;;;;;;;14.72;85.55;99851.34;5014199;28;20184;-70
2021/07/30 05:12:57;;;;;;;1.63;1.53;;;;;;;14.78;85.60;99853.50;5014039;28;20179;-71
2021/07/30 05:15:22;;;;;;;4.57;1.73;;;;;;;14.87;85.41;99856.06;5014016;28;20188;-72
2021/07/30 05:17:47;;;;;;;1.90;1.47;;;;;;;14.94;84.84;99859.00;5013995;28;20204;-72
2021/07/30 05:20:13;;;;;;;2.67;1.67;;;;;;;15.01;84.46;99855.63;5013890;28;20239;-72
2021/07/30 05:22:39;;;;;;;2.07;1.50;;;;;;;15.06;83.99;99863.63;5014057;28;20173;-72
2021/07/30 05:25:04;;;;;;;1.80;1.57;;;;;;;15.10;84.27;99859.78;5013228;28;20695;-71
2021/07/30 05:27:30;;;;;;;2.70;1.70;;;;;;;15.20;84.33;99865.91;5009930;28;20652;-72
2021/07/30 05:29:58;;;;;;;4.00;1.93;;;;;;;15.27;83.65;99866.06;5013425;28;20218;-72
2021/07/30 05:32:24;;;;;;;2.63;1.70;;;;;;;15.37;83.39;99854.53;5012618;28;20177;-72
2021/07/30 05:34:49;;;;;;;3.20;1.50;;;;;;;15.48;82.94;99861.88;5005895;28;20239;-71
2021/07/30 05:37:14;;;;;;;1.63;1.40;;;;;;;15.53;81.83;99865.50;5003089;28;20200;-72
2021/07/30 05:39:41;;;;;;;1.70;1.60;;;;;;;15.55;80.92;99863.19;5004002;28;20173;-72
2021/07/30 05:42:07;;;;;;;1.50;1.30;;;;;;;15.59;81.60;99859.38;4993863;28;20608;-72
2021/07/30 05:44:32;;;;;;;1.87;1.70;;;;;;;15.65;81.09;99859.91;4993857;28;20204;-72
2021/07/30 05:46:58;;;;;;;4.90;1.60;;;;;;;15.73;82.16;99850.63;4993964;28;20172;-73
2021/07/30 05:49:23;;;;;;;2.63;1.60;;;;;;;15.78;80.22;99850.38;5005630;28;20226;-73
2021/07/30 05:51:48;;;;;;;1.97;1.60;;;;;;;15.89;81.42;99850.59;5012029;28;20173;-72
2021/07/30 05:54:14;;;;;;;6.00;1.40;;;;;;;15.94;79.59;99855.81;5013319;28;20696;-72
2021/07/30 05:56:39;;;;;;;4.00;1.93;;;;;;;16.00;79.62;99852.41;5013535;28;20218;-72
2021/07/30 05:59:04;;;;;;;1.30;1.20;;;;;;;16.09;77.83;99852.19;5013363;28;20173;-73
2021/07/30 06:01:30;;;;;;;2.27;2.07;;;;;;;16.19;77.57;99859.06;5013310;28;20169;-72
2021/07/30 06:03:56;;;;;;;1.57;1.40;;;;;;;16.27;77.90;99860.81;5011713;28;20295;-73
2021/07/30 06:06:21;;;;;;;3.13;1.77;;;;;;;16.33;77.22;99862.09;5013153;28;20230;-72
2021/07/30 06:08:46;;;;;;;1.43;1.33;;;;;;;16.41;76.37;99847.31;5013437;28;20511;-72
2021/07/30 06:11:12;;;;;;;2.63;1.70;;;;;;;16.51;75.51;99840.41;5013215;28;20177;-73
2021/07/30 06:13:37;;;;;;;1.77;1.40;;;;;;;16.51;73.90;99849.47;5012871;28;20181;-72
2021/07/30 06:16:06;;;;;;;2.57;1.70;;;;;;;16.53;74.26;99855.41;5013153;28;20187;-72
2021/07/30 06:18:32;;;;;;;2.93;1.80;;;;;;;16.58;75.09;99848.81;5012878;28;20188;-72
2021/07/30 06:20:57;;;;;;;1.50;1.40;;;;;;;16.61;74.62;99861.84;5013097;28;20176;-73
2021/07/30 06:23:22;;;;;;;1.53;1.33;;;;;;;16.69;74.04;99857.31;5012562;28;20639;-73
2021/07/30 06:25:48;;;;;;;1.30;1.20;;;;;;;16.73;74.16;99858.16;5012684;28;20236;-72
2021/07/30 06:28:13;;;;;;;2.00;1.60;;;;;;;16.79;75.25;99851.97;5003478;28;20231;-73
2021/07/30 06:30:38;;;;;;;2.30;1.77;;;;;;;16.86;72.85;99860.38;5002116;28;20177;-72
2021/07/30 06:33:10;;;;;;;2.93;1.30;;;;;;;16.98;72.52;99866.88;5002146;28;20173;-72
2021/07/30 06:35:36;;;;;;;3.50;1.20;;;;;;;17.01;71.84;99861.41;4997853;28;20178;-72
2021/07/30 06:38:02;;;;;;;1.13;1.03;;;;;;;17.11;71.91;99857.25;4992341;28;20173;-72
2021/07/30 06:40:27;;;;;;;1.83;1.10;;;;;;;17.18;71.44;99858.13;5007280;28;20223;-73
2021/07/30 06:42:53;;;;;;;1.37;1.27;;;;;;;17.27;69.94;99857.09;5008204;28;20176;-73
2021/07/30 06:45:18;;;;;;;1.73;1.50;;;;;;;17.41;69.69;99851.78;5004081;28;20667;-72
2021/07/30 06:47:43;;;;;;;1.30;1.20;;;;;;;17.58;70.42;99850.44;5003559;28;20172;-74
2021/07/30 06:50:09;;;;;;;1.70;1.47;;;;;;;17.77;69.30;99851.13;5000696;28;20175;-74
2021/07/30 06:52:34;;;;;;;5.43;1.97;;;;;;;17.84;68.82;99859.53;5002135;28;20794;-74
2021/07/30 06:55:00;;;;;;;1.73;1.50;;;;;;;17.88;68.95;99867.06;5002590;28;20223;-74
2021/07/30 06:57:25;;;;;;;7.23;2.30;;;;;;;17.88;66.84;99867.06;5001054;28;20168;-75
2021/07/30 06:59:50;;;;;;;1.47;0.80;;;;;;;17.82;67.67;99853.59;5002665;28;20585;-74
2021/07/30 07:02:16;;;;;;;4.87;1.53;;;;;;;17.75;66.90;99852.69;5001697;28;20201;-74
2021/07/30 07:04:42;;;;;;;2.60;1.90;;;;;;;17.72;68.18;99850.69;5000902;28;20201;-73
2021/07/30 07:07:07;;;;;;;1.10;1.10;;;;;;;17.61;67.36;99847.72;5003074;28;20177;-74
2021/07/30 07:09:33;;;;;;;2.30;0.93;;;;;;;17.58;69.52;99837.44;5004074;28;20181;-75
2021/07/30 07:11:58;;;;;;;2.83;1.70;;;;;;;17.68;68.95;99836.00;5011724;28;20172;-75
2021/07/30 07:14:23;;;;;;;4.13;1.13;;;;;;;17.83;67.62;99843.34;5011158;28;20175;-74
2021/07/30 07:16:49;;;;;;;1.47;1.37;;;;;;;18.00;66.90;99844.72;5011715;28;20180;-74
2021/07/30 07:19:14;;;;;;;2.90;1.50;;;;;;;18.07;65.98;99847.56;5011798;28;20177;-75
2021/07/30 07:21:40;;;;;;;1.43;1.33;;;;;;;18.14;65.83;99829.13;5011558;28;20176;-75
2021/07/30 07:24:06;;;;;;;1.33;1.23;;;;;;;18.14;65.95;99829.13;5011502;28;20212;-74
2021/07/30 07:26:34;;;;;;;3.37;1.40;;;;;;;18.16;66.18;99827.94;5011613;28;20176;-74
2021/07/30 07:29:00;;;;;;;0.60;0.60;;;;;;;18.24;64.27;99832.38;5011456;28;20632;-75
2021/07/30 07:31:25;;;;;;;1.63;1.43;;;;;;;18.33;65.48;99821.81;5011295;28;20174;-74
2021/07/30 07:33:50;;;;;;;0.97;0.97;;;;;;;18.47;64.67;99827.50;5011524;28;20177;-72
2021/07/30 07:36:16;;;;;;;3.73;1.70;;;;;;;18.57;64.62;99826.81;5011415;28;20168;-73
2021/07/30 07:38:42;;;;;;;2.70;1.20;;;;;;;18.64;62.96;99823.34;5011387;28;20187;-78
2021/07/30 07:41:08;;;;;;;1.20;1.10;;;;;;;18.66;63.33;99827.34;5011305;28;20527;-72
2021/07/30 07:43:35;;;;;;;7.27;1.00;;;;;;;18.64;62.54;99828.88;5011207;28;20176;-72
2021/07/30 07:46:01;;;;;;;1.63;1.53;;;;;;;18.62;63.08;99832.00;5026490;28;20257;-72
2021/07/30 07:48:26;;;;;;;1.87;1.47;;;;;;;18.66;62.32;99829.28;5011123;28;20637;-72
2021/07/30 07:50:52;;;;;;;1.33;1.20;;;;;;;18.71;62.45;99828.94;5010717;28;20571;-72
2021/07/30 07:53:18;;;;;;;0.70;0.70;;;;;;;18.82;63.23;99826.28;5026355;28;20180;-72
2021/07/30 07:55:44;;;;;;;5.20;1.07;;;;;;;18.84;63.16;99826.69;5009484;28;20246;-72
2021/07/30 07:58:10;;;;;;;1.63;1.30;;;;;;;18.87;62.14;99817.63;5001475;28;20186;-72
2021/07/30 08:00:36;;;;;;;5.13;0.93;;;;;;;18.86;62.43;99827.09;4999779;28;20185;-73
2021/07/30 08:03:02;;;;;;;1.73;1.33;;;;;;;19.01;63.39;99814.97;5001438;28;20181;-72
2021/07/30 08:05:27;;;;;;;2.10;1.10;;;;;;;19.20;62.55;99813.91;5001226;28;20262;-72
2021/07/30 08:07:53;;;;;;;1.87;1.10;;;;;;;19.28;61.09;99816.38;5000186;28;20204;-71
2021/07/30 08:10:18;;;;;;;2.07;1.50;;;;;;;19.32;61.30;99817.16;5006451;28;20173;-72
2021/07/30 08:12:44;;;;;;;3.27;1.27;;;;;;;19.44;61.36;99818.84;5005186;28;20652;-72
2021/07/30 08:15:09;;;;;;;3.33;1.60;;;;;;;19.47;60.11;99811.72;5007328;28;20220;-72
2021/07/30 08:17:35;;;;;;;2.20;1.33;;;;;;;19.61;61.10;99812.63;5010707;28;20259;-72
2021/07/30 08:20:01;;;;;;;2.67;1.53;;;;;;;19.70;60.51;99814.25;5010506;28;20636;-72
2021/07/30 08:22:26;;;;;;;2.03;1.63;;;;;;;19.84;61.31;99819.88;5010519;28;20238;-72
2021/07/30 08:24:51;;;;;;;2.10;1.47;;;;;;;19.89;61.11;99828.59;5012027;28;20335;-73
2021/07/30 08:27:17;;;;;;;2.10;1.83;;;;;;;19.82;61.44;99827.78;5011773;28;20177;-72
2021/07/30 08:29:42;;;;;;;3.30;1.50;;;;;;;19.86;60.29;99823.84;5009224;28;20550;-72
2021/07/30 08:32:09;;;;;;;2.93;1.40;;;;;;;19.92;61.45;99830.59;5014573;28;20534;-72
2021/07/30 08:34:39;;;;;;;0.97;0.73;;;;;;;20.09;60.30;99820.75;5015053;28;20530;-72
2021/07/30 08:37:06;;;;;;;1.50;1.33;;;;;;;20.16;60.08;99823.56;5014567;28;20184;-73
2021/07/30 08:39:32;;;;;;;6.03;1.60;;;;;;;20.25;60.38;99822.38;5029658;28;20860;-72
2021/07/30 08:41:59;;;;;;;1.47;1.30;;;;;;;20.20;59.11;99823.56;5014309;28;20185;-72
2021/07/30 08:44:26;;;;;;;1.53;1.37;;;;;;;20.24;59.97;99826.34;5014565;28;20209;-72
2021/07/30 08:46:52;;;;;;;2.87;1.67;;;;;;;20.24;59.26;99818.81;5014389;28;20187;-72
2021/07/30 08:49:17;;;;;;;0.70;0.70;;;;;;;20.37;60.51;99819.25;5014341;28;20176;-72
2021/07/30 08:51:45;;;;;;;1.30;1.10;;;;;;;20.33;59.03;99819.25;5026488;28;20181;-72
2021/07/30 08:54:10;;;;;;;1.13;1.13;;;;;;;20.37;59.24;99817.28;5005650;28;20637;-73
2021/07/30 08:56:37;;;;;;;1.87;1.03;;;;;;;20.47;60.17;99815.75;5004664;28;20200;-72
2021/07/30 08:59:03;;;;;;;4.03;1.57;;;;;;;20.35;58.14;99816.88;5004244;28;20188;-73
2021/07/30 09:01:28;;;;;;;2.70;0.93;;;;;;;20.31;58.70;99801.41;4995011;28;20185;-72
2021/07/30 09:03:53;;;;;;;3.63;1.10;;;;;;;20.33;60.05;99805.38;4994490;28;20201;-72
2021/07/30 09:06:22;;;;;;;2.30;1.20;;;;;;;20.39;57.48;99809.34;4994923;28;20188;-72
2021/07/30 09:09:02;;;;;;;1.50;1.00;;;;;;;20.51;58.56;99816.53;4994419;28;20205;-72
2021/07/30 09:11:34;;;;;;;1.80;1.07;;;;;;;20.64;58.90;99812.19;4994794;28;20498;-72
2021/07/30 09:14:08;;;;;;;1.70;1.50;;;;;;;20.70;57.96;99802.31;5023791;28;20184;-72
2021/07/30 09:17:06;;;;;;;1.53;1.40;;;;;;;20.80;58.51;99803.47;5013828;28;20188;-72
2021/07/30 09:19:32;;;;;;;2.37;1.67;;;;;;;20.75;56.69;99796.34;4979797;28;20246;-72
2021/07/30 09:22:07;;;;;;;1.90;1.80;;;;;;;20.90;58.02;99797.16;5013443;28;20185;-72
2021/07/30 09:24:35;;;;;;;2.13;1.83;;;;;;;21.12;57.79;99803.50;5013642;28;20207;-72
2021/07/30 09:27:01;;;;;;;1.43;1.33;;;;;;;21.45;58.64;99799.50;5013964;28;20179;-73
2021/07/30 09:29:29;;;;;;;2.27;2.00;;;;;;;21.63;58.53;99802.22;5013719;28;20623;-73
2021/07/30 09:31:55;;;;;;;1.70;1.33;;;;;;;21.75;58.39;99792.66;5013462;28;20182;-73
2021/07/30 09:34:25;;;;;;;3.67;1.97;;;;;;;21.68;56.52;99788.69;5013578;28;20177;-73
2021/07/30 09:36:56;;;;;;;3.53;1.57;;;;;;;21.62;54.73;99890.41;5012617;28;20183;-73
2021/07/30 09:39:32;;;;;;;1.50;1.33;;;;;;;21.55;55.89;99837.56;5013484;28;20191;-73
2021/07/30 09:42:06;;;;;;;1.37;1.27;;;;;;;21.36;55.68;99799.91;5013311;28;20195;-72
2021/07/30 09:44:44;;;;;;;1.50;1.20;;;;;;;21.29;56.58;99779.69;5013458;28;20223;-72
2021/07/30 09:47:22;;;;;;;1.93;1.27;;;;;;;21.10;56.59;99764.97;5013233;28;20235;-72
2021/07/30 09:49:56;;;;;;;1.70;0.97;;;;;;;21.01;57.89;99759.06;5013301;28;20655;-72
2021/07/30 09:52:27;;;;;;;1.10;1.10;;;;;;;20.87;58.90;99755.50;5013187;28;20198;-72
2021/07/30 09:54:57;;;;;;;3.67;1.37;;;;;;;20.94;58.28;99756.28;5011810;28;20658;-72
2021/07/30 09:57:27;;;;;;;0.90;0.90;;;;;;;21.01;58.33;99767.38;5013317;28;20638;-72
2021/07/30 09:59:58;;;;;;;1.80;1.40;;;;;;;20.96;58.52;99755.88;5011822;28;20212;-73
2021/07/30 10:02:29;;;;;;;1.43;1.30;;;;;;;20.93;59.33;99746.34;5010309;28;20185;-72
2021/07/30 10:04:55;;;;;;;1.93;1.30;;;;;;;21.07;59.52;99746.34;5012772;28;20695;-72
2021/07/30 10:07:26;;;;;;;2.77;1.70;;;;;;;21.16;59.65;99742.38;5010291;28;20227;-72
2021/07/30 10:12:32;;;;;;;1.53;1.37;;;;;;;21.13;56.20;99721.75;5011108;28;20636;-73
2021/07/30 10:14:59;;;;;;;1.50;1.40;;;;;;;21.21;58.69;99714.16;5008523;28;20553;-72
2021/07/30 10:17:30;;;;;;;1.60;1.33;;;;;;;21.48;59.65;99731.97;5012644;28;20183;-72
2021/07/30 10:20:17;;;;;;;1.50;1.10;;;;;;;21.49;56.25;99725.22;5012201;28;20271;-72
2021/07/30 10:22:56;;;;;;;1.10;1.10;;;;;;;21.58;56.02;99908.28;5011955;28;20181;-72
2021/07/30 10:25:29;;;;;;;1.80;1.10;;;;;;;21.66;57.39;99832.00;5012237;28;20259;-72
2021/07/30 10:27:58;;;;;;;0.97;0.87;;;;;;;21.87;58.06;99803.34;5012317;28;20196;-72
2021/07/30 10:30:24;;;;;;;0.90;0.90;;;;;;;21.53;56.61;99737.09;5011987;28;20644;-72
2021/07/30 10:33:01;;;;;;;2.30;1.20;;;;;;;21.56;58.79;99729.97;5011844;28;20179;-72
2021/07/30 10:35:26;;;;;;;1.13;1.03;;;;;;;21.70;58.49;99710.44;5010860;28;20180;-73
2021/07/30 10:38:12;;;;;;;2.10;1.20;;;;;;;21.87;57.40;99698.44;5009699;28;20177;-72
2021/07/30 10:40:39;;;;;;;1.10;1.00;;;;;;;21.93;56.24;99698.78;5001770;28;20207;-73
2021/07/30 10:43:14;;;;;;;3.20;1.20;;;;;;;21.97;57.38;99691.22;5011353;28;20177;-73
2021/07/30 10:45:41;;;;;;;1.33;1.03;;;;;;;21.86;56.14;99696.06;5011866;28;20210;-72
2021/07/30 10:48:22;;;;;;;3.03;1.60;;;;;;;21.80;57.32;99680.97;5007617;28;20243;-73
2021/07/30 10:50:59;;;;;;;0.90;0.90;;;;;;;21.90;58.59;99682.91;5007528;28;20206;-73
2021/07/30 10:53:31;;;;;;;1.53;1.00;;;;;;;21.74;55.32;99675.06;5011998;28;20498;-73
2021/07/30 10:56:00;;;;;;;2.20;1.53;;;;;;;22.00;57.34;99690.41;5012062;28;20560;-73
2021/07/30 10:58:41;;;;;;;2.10;1.20;;;;;;;21.90;54.97;99680.94;5012095;28;20264;-73
2021/07/30 11:01:07;;;;;;;1.40;1.30;;;;;;;21.98;57.27;99682.44;5012348;28;20172;-72
2021/07/30 11:03:51;;;;;;;1.57;1.30;;;;;;;22.11;57.62;99682.00;5011420;28;20263;-72
2021/07/30 11:06:19;;;;;;;1.37;1.27;;;;;;;21.92;54.59;99686.09;5011299;28;20186;-72
2021/07/30 11:09:05;;;;;;;1.07;1.00;;;;;;;21.77;53.68;99679.03;5010204;28;20169;-72
2021/07/30 11:11:37;;;;;;;1.80;0.80;;;;;;;22.01;54.65;99678.09;5010766;28;20613;-71
2021/07/30 11:14:13;;;;;;;1.20;1.10;;;;;;;22.10;56.23;99684.00;5011058;28;20176;-72
2021/07/30 11:16:39;;;;;;;3.37;1.70;;;;;;;22.07;55.34;99672.91;5026653;28;20250;-72
2021/07/30 11:19:05;;;;;;;1.00;0.90;;;;;;;22.23;56.23;99678.75;5011412;28;20169;-72
2021/07/30 11:21:31;;;;;;;1.60;1.50;;;;;;;22.37;54.85;99669.50;5011140;28;20182;-72
2021/07/30 11:23:57;;;;;;;1.43;1.10;;;;;;;22.35;54.55;99666.34;5011399;28;20193;-72
2021/07/30 11:26:22;;;;;;;0.80;0.80;;;;;;;22.45;56.30;99671.81;5011360;28;20552;-72
2021/07/30 11:28:58;;;;;;;1.00;0.90;;;;;;;22.48;54.45;99668.22;5011407;28;20546;-72
2021/07/30 11:31:24;;;;;;;1.20;1.10;;;;;;;22.96;56.33;99680.50;5007541;28;20187;-72
2021/07/30 11:33:56;;;;;;;0.70;0.70;;;;;;;23.09;52.96;99682.34;5010420;28;20246;-72
2021/07/30 11:36:22;;;;;;;1.07;1.00;;;;;;;23.10;54.03;99672.78;5011534;28;20181;-72
2021/07/30 11:38:55;;;;;;;1.97;1.17;;;;;;;23.32;53.33;99675.34;5011532;28;20167;-73